Youngstown, New York
Current Conditions -  °F | °C
As of 8:00 PM on Saturday 25 Oct 2014 (Local Time) from CYSN Reporting Station
Scattered Clouds Scattered Clouds  
Wind Chill: 50°   Ceiling: Unl
Heat Index: 50°   Visibility: 15mi
Dew Point: 45°   Wind: 8mph
Humidity: 82%   Direction: 180°S
Pressure: 29.61"   Gusts: NA
Location:  43.25°N, 79.05°W
Report Text: CYSN 260000Z 18007KT 15SM SCT082 10/07 A2961 RMK AC4 SLP028
Loading
Personal Weather Stations






























Interactive Weather Map
Tropical Storm Tracking
New forecast layout! Learn more

10-Day Weather Forecast

Advertisements
Track Severe Weather on mobile